Fronteira dos Vales, Brazil
Current Conditions -  °F | °C
As of 10:00 PM on Saturday 22 Nov 2014 (Local Time) from SBPS Reporting Station
Scattered Clouds Scattered Clouds  
Wind Chill: 77°   Ceiling: Unl
Heat Index: 78°   Visibility: 6mi
Dew Point: 72°   Wind: 12mph
Humidity: 83%   Direction: 60°ENE
Pressure: 29.97"   Gusts: NA
Location:  16.89°S, 40.92°W
Report Text: SBPS 230000Z 06010KT 9999 SCT020 25/22 Q1015
Loading
Personal Weather Stations






























Interactive Weather Map New forecast layout! Learn more

10-Day Weather Forecast

Advertisements
Track Severe Weather on mobile